createdAt,value
2022-12-15T00:01:43.635Z,32.08
2022-12-15T00:04:29.088Z,30.23
2022-12-15T00:07:14.518Z,31.52
2022-12-15T00:10:00.059Z,30.67
2022-12-15T00:12:45.428Z,31.73
2022-12-15T00:15:30.883Z,30.30
2022-12-15T00:18:16.392Z,29.75
2022-12-15T00:21:01.531Z,31.65
2022-12-15T00:23:47.048Z,31.42
2022-12-15T00:26:32.353Z,29.98
2022-12-15T00:29:18.035Z,30.75
2022-12-15T00:32:03.588Z,31.10
2022-12-15T00:34:48.858Z,30.08
2022-12-15T00:37:34.447Z,31.83
2022-12-15T00:40:04.671Z,29.55
2022-12-15T00:42:31.672Z,29.75
2022-12-15T00:44:58.935Z,31.63
2022-12-15T00:47:26.004Z,31.65
2022-12-15T00:50:11.623Z,31.08
2022-12-15T00:52:57.083Z,30.85
2022-12-15T00:55:42.542Z,31.50
2022-12-15T00:58:29.211Z,30.73
2022-12-15T01:01:14.701Z,31.25
2022-12-15T01:04:00.370Z,31.50
2022-12-15T01:06:45.476Z,30.45
2022-12-15T01:09:32.141Z,30.70
2022-12-15T01:12:17.552Z,31.50
2022-12-15T01:15:03.144Z,32.28
2022-12-15T01:17:48.613Z,31.60
2022-12-15T01:20:18.265Z,32.10
2022-12-15T01:22:53.131Z,30.00
2022-12-15T01:25:23.551Z,32.05
2022-12-15T01:27:50.682Z,32.50
2022-12-15T01:30:25.676Z,30.25
2022-12-15T01:32:52.923Z,31.90
2022-12-15T01:35:21.250Z,31.13
2022-12-15T01:37:50.132Z,29.65
2022-12-15T01:40:37.374Z,30.52
2022-12-15T01:43:04.340Z,29.98
2022-12-15T01:45:30.954Z,30.73
2022-12-15T01:48:00.890Z,31.42
2022-12-15T01:50:29.743Z,31.73
2022-12-15T01:52:56.448Z,31.67
2022-12-15T01:55:27.476Z,31.83
2022-12-15T01:58:01.026Z,30.05
2022-12-15T02:00:28.325Z,31.33
2022-12-15T02:02:56.742Z,29.83
2022-12-15T02:05:24.642Z,30.77
2022-12-15T02:07:51.411Z,32.53
2022-12-15T02:10:18.357Z,32.63
2022-12-15T02:12:50.704Z,31.17
2022-12-15T02:15:32.400Z,34.10
2022-12-15T02:18:10.598Z,34.10
2022-12-15T02:20:51.338Z,32.40
2022-12-15T02:23:25.828Z,32.25
2022-12-15T02:26:29.803Z,33.65
2022-12-15T02:29:28.678Z,32.75
2022-12-15T02:32:29.126Z,33.25
2022-12-15T02:35:02.962Z,34.17
2022-12-15T02:37:34.528Z,34.08
2022-12-15T02:40:01.913Z,34.65
2022-12-15T02:42:30.416Z,32.78
2022-12-15T02:45:02.943Z,32.40
2022-12-15T02:48:05.928Z,34.15
2022-12-15T02:50:38.432Z,31.98
2022-12-15T02:53:29.630Z,32.88
2022-12-15T02:56:23.439Z,32.45
2022-12-15T02:59:06.369Z,34.10
2022-12-15T03:01:40.677Z,35.17
2022-12-15T03:04:10.850Z,34.90
2022-12-15T03:06:37.845Z,33.45
2022-12-15T03:09:04.700Z,33.00
2022-12-15T03:11:31.634Z,34.13
2022-12-15T03:13:58.384Z,32.45
2022-12-15T03:16:25.128Z,31.65
2022-12-15T03:18:52.770Z,33.55
2022-12-15T03:21:19.626Z,32.10
2022-12-15T03:23:46.351Z,32.35
2022-12-15T03:26:13.347Z,33.50
2022-12-15T03:28:40.100Z,32.03
2022-12-15T03:31:07.248Z,34.28
2022-12-15T03:33:35.159Z,32.40
2022-12-15T03:36:02.052Z,32.53
2022-12-15T03:38:28.837Z,30.73
2022-12-15T03:40:55.560Z,31.08
2022-12-15T03:43:22.522Z,31.10
2022-12-15T03:45:49.541Z,32.10
2022-12-15T03:48:16.502Z,32.20
2022-12-15T03:50:44.445Z,31.90
2022-12-15T03:53:11.133Z,32.45
2022-12-15T03:55:37.900Z,33.08
2022-12-15T03:58:04.665Z,32.30
2022-12-15T04:00:31.375Z,32.30
2022-12-15T04:02:58.331Z,31.23
2022-12-15T04:05:28.545Z,31.30
2022-12-15T04:07:56.956Z,32.15
2022-12-15T04:10:31.741Z,30.10
2022-12-15T04:13:09.129Z,30.90
2022-12-15T04:15:38.589Z,31.52
2022-12-15T04:18:09.159Z,30.25
2022-12-15T04:20:36.120Z,30.13
2022-12-15T04:23:02.898Z,30.90
2022-12-15T04:25:48.226Z,32.90
2022-12-15T04:28:33.978Z,32.50
2022-12-15T04:31:29.521Z,31.88
2022-12-15T04:34:18.531Z,31.83
2022-12-15T04:37:07.467Z,33.75
2022-12-15T04:39:54.801Z,30.77
2022-12-15T04:42:40.271Z,32.28
2022-12-15T04:45:26.388Z,31.40
2022-12-15T04:48:11.844Z,33.63
2022-12-15T04:50:57.599Z,31.42
2022-12-15T04:53:42.765Z,31.52
2022-12-15T04:56:30.504Z,31.80
2022-12-15T04:59:16.023Z,31.05
2022-12-15T05:02:01.729Z,31.35
2022-12-15T05:07:32.610Z,32.05
2022-12-15T05:10:18.034Z,29.70
2022-12-15T05:13:03.545Z,30.58
2022-12-15T05:15:50.500Z,31.90
2022-12-15T05:18:35.947Z,32.00
2022-12-15T05:21:21.289Z,31.65
2022-12-15T05:24:06.715Z,33.25
2022-12-15T05:26:53.284Z,31.05
2022-12-15T05:29:39.422Z,31.33
2022-12-15T05:34:35.144Z,31.13
2022-12-15T05:37:03.584Z,32.47
2022-12-15T05:39:30.464Z,30.00
2022-12-15T05:41:57.547Z,32.08
2022-12-15T05:44:25.654Z,29.90
2022-12-15T05:46:52.697Z,31.83
2022-12-15T05:49:19.461Z,31.63
2022-12-15T05:51:47.959Z,32.15
2022-12-15T05:54:18.194Z,32.08
2022-12-15T05:56:45.758Z,31.33
2022-12-15T05:59:13.059Z,31.55
2022-12-15T06:01:40.196Z,31.80
2022-12-15T06:04:07.583Z,33.67
2022-12-15T06:06:34.424Z,31.48
2022-12-15T06:09:01.155Z,30.80
2022-12-15T06:11:27.932Z,32.05
2022-12-15T06:13:56.215Z,31.33
2022-12-15T06:16:24.619Z,32.53
2022-12-15T06:18:54.695Z,32.08
2022-12-15T06:21:24.378Z,33.35
2022-12-15T06:23:52.188Z,32.97
2022-12-15T06:26:31.178Z,33.10
2022-12-15T06:29:02.572Z,32.67
2022-12-15T06:31:30.835Z,31.88
2022-12-15T06:34:02.043Z,31.23
2022-12-15T06:36:30.743Z,32.10
2022-12-15T06:39:02.242Z,33.58
2022-12-15T06:41:30.382Z,33.60
2022-12-15T06:43:57.759Z,33.35
2022-12-15T06:46:26.081Z,34.25
2022-12-15T06:48:53.138Z,34.65
2022-12-15T06:51:20.437Z,33.80
2022-12-15T06:53:54.385Z,32.78
2022-12-15T06:56:34.651Z,34.45
2022-12-15T06:59:06.487Z,34.50
2022-12-15T07:01:33.980Z,33.60
2022-12-15T07:04:04.736Z,34.13
2022-12-15T07:06:37.031Z,31.67
2022-12-15T07:09:07.123Z,32.30
2022-12-15T07:11:33.866Z,31.10
2022-12-15T07:14:00.906Z,33.10
2022-12-15T07:16:27.810Z,31.40
2022-12-15T07:18:54.749Z,31.77
2022-12-15T07:21:21.781Z,32.35
2022-12-15T07:23:57.284Z,31.90
2022-12-15T07:26:25.058Z,31.55
2022-12-15T07:28:53.228Z,32.88
2022-12-15T07:31:20.122Z,31.27
2022-12-15T07:33:48.444Z,32.13
2022-12-15T07:36:15.515Z,32.13
2022-12-15T07:38:42.459Z,32.45
2022-12-15T07:41:10.619Z,30.95
2022-12-15T07:43:38.388Z,31.25
2022-12-15T07:46:06.396Z,31.52
2022-12-15T07:48:33.897Z,32.20
2022-12-15T07:51:11.060Z,32.13
2022-12-15T07:53:42.728Z,32.05
2022-12-15T07:56:10.392Z,31.65
2022-12-15T07:58:38.244Z,32.08
2022-12-15T08:01:10.823Z,32.53
2022-12-15T08:03:38.826Z,31.08
2022-12-15T08:06:11.259Z,34.03
2022-12-15T08:08:38.307Z,36.13
2022-12-15T08:11:09.894Z,35.90
2022-12-15T08:16:25.142Z,35.90
2022-12-15T08:18:51.966Z,36.28
2022-12-15T08:21:19.038Z,37.10
2022-12-15T08:23:45.911Z,39.13
2022-12-15T08:26:16.132Z,37.10
2022-12-15T08:28:43.897Z,36.70
2022-12-15T08:31:17.331Z,37.38
2022-12-15T08:33:45.279Z,35.08
2022-12-15T08:36:14.834Z,35.25
2022-12-15T08:38:43.127Z,34.40
2022-12-15T08:41:14.557Z,34.63
2022-12-15T08:43:47.944Z,33.42
2022-12-15T08:46:17.748Z,33.13
2022-12-15T08:48:44.744Z,33.03
2022-12-15T08:51:11.989Z,34.15
2022-12-15T08:53:39.045Z,33.35
2022-12-15T08:56:12.511Z,33.72
2022-12-15T08:58:39.817Z,31.60
2022-12-15T09:01:09.715Z,33.30
2022-12-15T09:03:37.475Z,32.78
2022-12-15T09:06:06.090Z,33.22
2022-12-15T09:08:33.642Z,39.00
2022-12-15T09:11:00.993Z,64.30
2022-12-15T09:13:28.836Z,64.50
2022-12-15T09:16:09.335Z,40.90
2022-12-15T09:18:37.283Z,34.55
2022-12-15T09:21:07.348Z,33.90
2022-12-15T09:23:35.990Z,32.28
2022-12-15T09:26:09.219Z,30.63
2022-12-15T09:28:37.203Z,30.50
2022-12-15T09:31:05.679Z,29.15
2022-12-15T09:33:33.278Z,28.95
2022-12-15T09:36:00.362Z,29.65
2022-12-15T09:38:27.308Z,29.40
2022-12-15T09:40:54.214Z,28.23
2022-12-15T09:43:35.781Z,26.80
2022-12-15T09:46:11.793Z,25.17
2022-12-15T09:48:44.471Z,23.50
2022-12-15T09:51:17.261Z,22.60
2022-12-15T09:53:54.640Z,21.88
2022-12-15T09:56:32.663Z,21.55
2022-12-15T09:59:37.032Z,21.48
2022-12-15T10:02:28.912Z,20.63
2022-12-15T10:05:57.748Z,20.23
2022-12-15T10:08:22.123Z,21.08
2022-12-15T10:10:51.802Z,22.20
2022-12-15T10:13:31.339Z,23.23
2022-12-15T10:16:07.540Z,25.27
2022-12-15T10:19:07.101Z,24.88
2022-12-15T10:21:34.148Z,24.50
2022-12-15T10:24:59.807Z,26.63
2022-12-15T10:27:40.932Z,26.92
2022-12-15T10:30:11.363Z,26.60
2022-12-15T10:32:50.990Z,28.80
2022-12-15T10:35:28.902Z,27.65
2022-12-15T10:38:00.681Z,26.20
2022-12-15T10:43:40.465Z,27.40
2022-12-15T10:46:28.457Z,27.35
2022-12-15T10:49:07.382Z,25.42
2022-12-15T10:51:48.127Z,26.95
2022-12-15T10:54:16.519Z,23.35
2022-12-15T10:56:52.701Z,23.98
2022-12-15T10:59:31.827Z,25.20
2022-12-15T11:02:23.898Z,25.63
2022-12-15T11:04:59.867Z,24.10
2022-12-15T11:07:48.499Z,23.25
2022-12-15T11:10:24.091Z,23.20
2022-12-15T11:15:40.397Z,23.02
2022-12-15T11:18:38.344Z,23.17
2022-12-15T11:21:16.811Z,21.02
2022-12-15T11:23:52.830Z,21.90
2022-12-15T11:26:43.777Z,21.35
2022-12-15T11:29:35.210Z,19.92
2022-12-15T11:34:49.305Z,19.25
2022-12-15T11:37:44.933Z,18.48
2022-12-15T11:40:23.705Z,16.48
2022-12-15T11:42:53.473Z,16.50
2022-12-15T11:45:37.677Z,15.68
2022-12-15T11:48:15.026Z,18.17
2022-12-15T11:50:53.844Z,18.33
2022-12-15T11:53:23.743Z,18.08
2022-12-15T11:56:01.623Z,16.20
2022-12-15T11:59:09.706Z,17.02
2022-12-15T12:02:03.284Z,15.77
2022-12-15T12:04:52.242Z,17.73
2022-12-15T12:07:32.840Z,17.13
2022-12-15T12:10:33.142Z,18.95
2022-12-15T12:13:38.618Z,18.90
2022-12-15T12:16:15.882Z,20.38
2022-12-15T12:18:52.168Z,20.60
2022-12-15T12:21:34.129Z,19.92
2022-12-15T12:24:06.638Z,20.88
2022-12-15T12:26:45.143Z,21.75
2022-12-15T12:29:34.636Z,21.08
2022-12-15T12:32:14.186Z,20.90
2022-12-15T12:35:31.213Z,20.35
2022-12-15T12:38:04.023Z,19.67
2022-12-15T12:41:36.913Z,19.52
2022-12-15T12:44:30.929Z,18.98
2022-12-15T12:47:00.556Z,17.98
2022-12-15T12:49:56.394Z,18.85
2022-12-15T12:52:31.296Z,17.35
2022-12-15T12:55:01.862Z,18.80
2022-12-15T12:57:50.110Z,18.30
2022-12-15T13:00:19.650Z,18.27
2022-12-15T13:02:48.357Z,17.30
2022-12-15T13:05:35.594Z,19.02
2022-12-15T13:08:05.426Z,18.87
2022-12-15T13:10:36.948Z,18.75
2022-12-15T13:13:18.455Z,19.38
2022-12-15T13:15:50.849Z,20.45
2022-12-15T13:18:25.400Z,19.83
2022-12-15T13:20:57.107Z,20.80
2022-12-15T13:23:23.881Z,21.17
2022-12-15T13:25:56.621Z,20.98
2022-12-15T13:28:47.383Z,21.33
2022-12-15T13:31:24.121Z,22.10
2022-12-15T13:33:50.981Z,21.15
2022-12-15T13:36:36.518Z,22.13
2022-12-15T13:39:12.563Z,20.80
2022-12-15T13:42:00.627Z,21.00
2022-12-15T13:44:43.914Z,20.98
2022-12-15T13:47:25.239Z,21.75
2022-12-15T13:50:01.075Z,21.90
2022-12-15T13:53:17.457Z,21.92
2022-12-15T13:55:37.206Z,23.10
2022-12-15T14:00:33.654Z,23.58
2022-12-15T14:03:12.841Z,23.27
2022-12-15T14:05:42.942Z,25.23
2022-12-15T14:08:14.976Z,23.63
2022-12-15T14:10:49.055Z,24.80
2022-12-15T14:13:24.936Z,25.45
2022-12-15T14:15:59.028Z,25.73
2022-12-15T14:18:34.238Z,26.67
2022-12-15T14:21:04.656Z,25.80
2022-12-15T14:23:41.540Z,25.77
2022-12-15T14:26:14.799Z,25.00
2022-12-15T14:28:44.054Z,28.58
2022-12-15T14:31:20.825Z,27.75
2022-12-15T14:36:20.434Z,27.65
2022-12-15T14:38:53.502Z,27.02
2022-12-15T14:41:35.229Z,28.67
2022-12-15T14:44:31.506Z,29.15
2022-12-15T14:47:00.200Z,27.23
2022-12-15T14:49:36.259Z,28.38
2022-12-15T14:52:06.188Z,27.75
2022-12-15T14:54:39.089Z,28.88
2022-12-15T14:57:11.704Z,29.10
2022-12-15T14:59:42.166Z,29.20
2022-12-15T15:02:29.560Z,28.17
2022-12-15T15:03:04.066Z,28.75
2022-12-15T15:03:06.891Z,19.92
2022-12-15T15:05:03.778Z,28.70
2022-12-15T15:07:35.520Z,29.85
2022-12-15T15:10:05.288Z,30.10
2022-12-15T15:12:45.401Z,30.50
2022-12-15T15:15:19.524Z,30.80
2022-12-15T15:17:55.670Z,29.88
2022-12-15T15:20:26.828Z,29.05
2022-12-15T15:23:08.577Z,28.45
2022-12-15T15:25:59.453Z,30.13
2022-12-15T15:28:35.773Z,27.50
2022-12-15T15:31:22.710Z,28.52
2022-12-15T15:33:49.451Z,30.13
2022-12-15T15:36:16.204Z,29.60
2022-12-15T15:38:46.722Z,33.25
2022-12-15T15:41:21.989Z,28.60
2022-12-15T15:43:48.863Z,27.30
2022-12-15T15:46:22.988Z,27.67
2022-12-15T15:48:53.632Z,28.35
2022-12-15T15:51:21.070Z,28.90
2022-12-15T15:53:48.092Z,27.35
2022-12-15T15:56:17.061Z,26.98
2022-12-15T15:58:43.982Z,28.25
2022-12-15T16:01:13.320Z,29.08
2022-12-15T16:03:41.268Z,28.10
2022-12-15T16:06:16.763Z,27.67
2022-12-15T16:08:45.028Z,25.50
2022-12-15T16:11:12.294Z,28.45
2022-12-15T16:13:39.729Z,27.33
2022-12-15T16:16:07.006Z,26.88
2022-12-15T16:18:34.348Z,25.48
2022-12-15T16:21:01.558Z,25.85
2022-12-15T16:23:29.752Z,27.15
2022-12-15T16:25:58.509Z,27.00
2022-12-15T16:28:30.701Z,27.00
2022-12-15T16:30:58.759Z,24.85
2022-12-15T16:33:25.822Z,25.33
2022-12-15T16:35:53.498Z,26.77
2022-12-15T16:38:26.072Z,26.00
2022-12-15T16:40:55.310Z,26.20
2022-12-15T16:43:24.819Z,25.00
2022-12-15T16:45:53.939Z,25.65
2022-12-15T16:48:21.129Z,26.02
2022-12-15T16:50:55.244Z,25.17
2022-12-15T16:53:28.863Z,25.77
2022-12-15T16:55:57.510Z,24.83
2022-12-15T16:58:26.464Z,25.35
2022-12-15T17:00:56.183Z,26.70
2022-12-15T17:03:25.674Z,25.92
2022-12-15T17:05:58.086Z,25.48
2022-12-15T17:08:26.293Z,26.00
2022-12-15T17:10:53.673Z,25.63
2022-12-15T17:13:41.899Z,24.98
2022-12-15T17:16:14.550Z,25.48
2022-12-15T17:18:43.032Z,25.48
2022-12-15T17:21:17.363Z,24.70
2022-12-15T17:23:52.329Z,25.30
2022-12-15T17:26:29.043Z,25.15
2022-12-15T17:29:01.427Z,23.85
2022-12-15T17:31:34.867Z,22.52
2022-12-15T17:34:13.503Z,21.65
2022-12-15T17:36:40.202Z,20.45
2022-12-15T17:39:09.815Z,18.92
2022-12-15T17:41:58.781Z,17.55
2022-12-15T17:44:41.279Z,18.33
2022-12-15T17:47:09.189Z,18.48
2022-12-15T17:49:38.724Z,17.27
2022-12-15T17:52:26.179Z,16.55
2022-12-15T17:54:53.529Z,17.98
2022-12-15T17:57:20.406Z,17.70
2022-12-15T17:59:47.586Z,17.88
2022-12-15T18:02:14.885Z,16.02
2022-12-15T18:04:42.439Z,16.27
2022-12-15T18:07:29.412Z,15.52
2022-12-15T18:09:56.144Z,15.85
2022-12-15T18:12:26.231Z,15.00
2022-12-15T18:14:54.032Z,16.08
2022-12-15T18:17:20.819Z,15.07
2022-12-15T18:19:47.787Z,15.55
2022-12-15T18:22:22.042Z,16.33
2022-12-15T18:24:49.742Z,16.95
2022-12-15T18:27:26.553Z,17.23
2022-12-15T18:29:53.864Z,16.40
2022-12-15T18:32:25.316Z,16.73
2022-12-15T18:34:52.537Z,16.50
2022-12-15T18:37:22.867Z,16.55
2022-12-15T18:39:50.454Z,16.20
2022-12-15T18:42:20.257Z,16.00
2022-12-15T18:44:50.298Z,16.67
2022-12-15T18:47:19.838Z,17.70
2022-12-15T18:49:46.747Z,15.55
2022-12-15T18:52:25.007Z,16.02
2022-12-15T18:54:54.409Z,16.92
2022-12-15T18:57:31.506Z,17.77
2022-12-15T19:00:04.581Z,16.63
2022-12-15T19:02:31.408Z,16.27
2022-12-15T19:04:58.213Z,16.27
2022-12-15T19:07:25.087Z,15.25
2022-12-15T19:09:51.994Z,16.08
2022-12-15T19:12:18.973Z,15.88
2022-12-15T19:14:47.561Z,16.63
2022-12-15T19:17:43.201Z,17.08
2022-12-15T19:20:38.152Z,16.50
2022-12-15T19:23:06.844Z,15.18
2022-12-15T19:25:34.557Z,14.55
2022-12-15T19:28:01.736Z,16.15
2022-12-15T19:30:41.690Z,15.43
2022-12-15T19:33:10.031Z,14.35
2022-12-15T19:35:38.130Z,13.43
2022-12-15T19:38:05.562Z,14.00
2022-12-15T19:40:34.363Z,14.07
2022-12-15T19:43:02.176Z,14.63
2022-12-15T19:45:31.410Z,14.48
2022-12-15T19:47:59.149Z,14.63
2022-12-15T19:50:28.103Z,14.38
2022-12-15T19:53:00.616Z,13.38
2022-12-15T19:55:32.688Z,13.30
2022-12-15T19:58:00.903Z,13.98
2022-12-15T20:00:27.804Z,13.95
2022-12-15T20:02:55.220Z,13.07
2022-12-15T20:05:24.202Z,13.07
2022-12-15T20:07:53.300Z,13.65
2022-12-15T20:10:31.695Z,12.45
2022-12-15T20:13:00.275Z,12.98
2022-12-15T20:15:27.347Z,13.05
2022-12-15T20:17:56.719Z,13.80
2022-12-15T20:20:26.110Z,13.05
2022-12-15T20:22:56.423Z,13.57
2022-12-15T20:25:30.040Z,12.63
2022-12-15T20:28:00.215Z,12.65
2022-12-15T20:30:35.421Z,11.63
2022-12-15T20:33:04.373Z,14.13
2022-12-15T20:35:33.259Z,12.05
2022-12-15T20:38:04.274Z,14.13
2022-12-15T20:40:31.605Z,12.25
2022-12-15T20:42:58.334Z,13.38
2022-12-15T20:45:27.062Z,12.40
2022-12-15T20:47:55.841Z,12.50
2022-12-15T20:50:27.537Z,13.75
2022-12-15T20:52:54.911Z,13.43
2022-12-15T20:55:22.291Z,12.95
2022-12-15T20:57:49.273Z,14.63
2022-12-15T21:00:18.088Z,13.85
2022-12-15T21:02:46.085Z,13.50
2022-12-15T21:05:19.334Z,13.38
2022-12-15T21:07:46.967Z,13.68
2022-12-15T21:10:15.616Z,14.48
2022-12-15T21:12:44.734Z,13.48
2022-12-15T21:15:24.213Z,13.85
2022-12-15T21:18:19.737Z,14.15
2022-12-15T21:20:41.767Z,13.63
2022-12-15T21:23:39.709Z,14.35
2022-12-15T21:26:10.396Z,14.07
2022-12-15T21:28:37.443Z,13.57
2022-12-15T21:31:04.258Z,13.70
2022-12-15T21:33:31.063Z,13.70
2022-12-15T21:35:58.520Z,13.23
2022-12-15T21:38:39.810Z,12.85
2022-12-15T21:41:13.013Z,12.77
2022-12-15T21:43:39.678Z,13.55
2022-12-15T21:46:24.611Z,12.48
2022-12-15T21:49:13.644Z,12.90
2022-12-15T21:54:15.469Z,12.57
2022-12-15T21:56:42.187Z,13.25
2022-12-15T21:59:13.587Z,14.05
2022-12-15T22:01:40.619Z,13.70
2022-12-15T22:04:21.612Z,12.68
2022-12-15T22:06:50.663Z,12.75
2022-12-15T22:09:18.522Z,11.88
2022-12-15T22:11:49.820Z,11.95
2022-12-15T22:14:33.612Z,11.65
2022-12-15T22:17:16.524Z,11.50
2022-12-15T22:19:43.497Z,12.43
2022-12-15T22:22:10.297Z,11.38
2022-12-15T22:24:37.054Z,11.45
2022-12-15T22:27:04.118Z,11.52
2022-12-15T22:29:31.648Z,12.13
2022-12-15T22:31:58.686Z,10.95
2022-12-15T22:34:27.047Z,11.80
2022-12-15T22:36:54.988Z,11.60
2022-12-15T22:39:22.044Z,11.95
2022-12-15T22:41:50.730Z,12.85
2022-12-15T22:44:37.200Z,12.63
2022-12-15T22:47:04.708Z,11.50
2022-12-15T22:49:37.683Z,12.27
2022-12-15T22:52:16.566Z,12.48
2022-12-15T22:54:46.037Z,11.93
2022-12-15T22:57:29.231Z,11.75
2022-12-15T23:00:03.025Z,12.68
2022-12-15T23:02:34.773Z,13.52
2022-12-15T23:05:02.346Z,12.60
2022-12-15T23:07:29.056Z,12.68
2022-12-15T23:10:21.850Z,12.82
2022-12-15T23:12:54.136Z,14.48
2022-12-15T23:15:44.515Z,15.77
2022-12-15T23:18:12.310Z,16.20
2022-12-15T23:20:39.090Z,16.88
2022-12-15T23:23:05.879Z,15.50
2022-12-15T23:25:32.940Z,17.52
2022-12-15T23:28:00.033Z,16.60
2022-12-15T23:30:27.102Z,17.23
2022-12-15T23:32:54.971Z,15.80
2022-12-15T23:35:22.314Z,16.52
2022-12-15T23:37:49.093Z,14.70
2022-12-15T23:40:21.275Z,15.00
2022-12-15T23:42:49.164Z,14.85
2022-12-15T23:45:16.368Z,15.77
2022-12-15T23:47:43.432Z,15.68
2022-12-15T23:50:10.623Z,14.68
2022-12-15T23:52:37.929Z,15.77
2022-12-15T23:55:05.002Z,16.25
2022-12-15T23:57:31.771Z,14.40
2022-12-15T23:59:58.634Z,15.73
